createdAt,value
2023-05-04T00:01:23.468Z,35.59
2023-05-04T00:03:51.629Z,35.65
2023-05-04T00:06:19.708Z,35.44
2023-05-04T00:08:47.688Z,35.81
2023-05-04T00:11:15.866Z,35.91
2023-05-04T00:13:43.944Z,35.90
2023-05-04T00:16:13.371Z,35.70
2023-05-04T00:18:43.644Z,35.57
2023-05-04T00:21:11.664Z,35.47
2023-05-04T00:23:39.574Z,35.76
2023-05-04T00:26:07.584Z,35.85
2023-05-04T00:28:35.556Z,35.69
2023-05-04T00:31:03.652Z,35.69
2023-05-04T00:33:33.050Z,35.82
2023-05-04T00:36:01.082Z,35.67
2023-05-04T00:38:28.993Z,35.73
2023-05-04T00:40:58.016Z,35.87
2023-05-04T00:43:26.327Z,35.80
2023-05-04T00:45:54.263Z,35.75
2023-05-04T00:48:22.252Z,35.99
2023-05-04T00:50:51.540Z,35.80
2023-05-04T00:53:19.499Z,35.82
2023-05-04T00:55:47.463Z,36.13
2023-05-04T00:58:15.479Z,35.68
2023-05-04T01:00:43.538Z,35.74
2023-05-04T01:03:11.638Z,35.89
2023-05-04T01:05:41.308Z,36.06
2023-05-04T01:08:12.908Z,36.14
2023-05-04T01:10:42.996Z,36.21
2023-05-04T01:13:13.029Z,36.00
2023-05-04T01:15:41.270Z,35.95
2023-05-04T01:18:09.576Z,36.00
2023-05-04T01:20:37.614Z,36.12
2023-05-04T01:23:07.050Z,36.28
2023-05-04T01:25:39.533Z,36.07
2023-05-04T01:28:09.392Z,36.00
2023-05-04T01:30:38.497Z,36.19
2023-05-04T01:33:06.564Z,36.28
2023-05-04T01:35:34.687Z,35.99
2023-05-04T01:38:02.802Z,36.14
2023-05-04T01:40:32.141Z,36.31
2023-05-04T01:43:00.193Z,36.62
2023-05-04T01:45:28.265Z,36.53
2023-05-04T01:47:56.309Z,36.39
2023-05-04T01:50:24.214Z,36.46
2023-05-04T01:52:52.142Z,36.44
2023-05-04T01:55:20.156Z,36.60
2023-05-04T01:57:49.491Z,36.42
2023-05-04T02:00:17.541Z,36.73
2023-05-04T02:02:45.530Z,36.53
2023-05-04T02:05:13.594Z,36.51
2023-05-04T02:07:41.545Z,36.59
2023-05-04T02:10:10.594Z,36.74
2023-05-04T02:12:38.653Z,36.38
2023-05-04T02:15:09.250Z,36.60
2023-05-04T02:17:37.452Z,36.78
2023-05-04T02:20:06.840Z,36.77
2023-05-04T02:22:35.003Z,36.75
2023-05-04T02:25:03.491Z,36.94
2023-05-04T02:27:31.682Z,36.89
2023-05-04T02:29:59.659Z,36.87
2023-05-04T02:32:29.103Z,36.88
2023-05-04T02:34:57.092Z,36.94
2023-05-04T02:37:25.125Z,36.69
2023-05-04T02:39:53.031Z,36.65
2023-05-04T02:42:22.093Z,36.68
2023-05-04T02:47:46.966Z,36.95
2023-05-04T02:50:15.076Z,37.02
2023-05-04T02:52:43.029Z,36.93
2023-05-04T02:55:11.513Z,36.70
2023-05-04T02:57:39.476Z,36.71
2023-05-04T03:00:10.472Z,37.05
2023-05-04T03:02:38.426Z,36.97
2023-05-04T03:05:08.465Z,36.72
2023-05-04T03:07:36.452Z,36.69
2023-05-04T03:10:04.616Z,37.01
2023-05-04T03:12:32.949Z,37.03
2023-05-04T03:15:01.127Z,36.88
2023-05-04T03:17:29.125Z,36.72
2023-05-04T03:19:57.164Z,36.87
2023-05-04T03:22:26.608Z,36.99
2023-05-04T03:24:54.614Z,37.17
2023-05-04T03:27:22.657Z,37.21
2023-05-04T03:29:50.635Z,37.23
2023-05-04T03:32:18.615Z,37.05
2023-05-04T03:34:46.926Z,37.04
2023-05-04T03:37:14.896Z,37.51
2023-05-04T03:39:44.213Z,37.55
2023-05-04T03:42:12.557Z,37.21
2023-05-04T03:44:40.868Z,37.34
2023-05-04T03:47:08.864Z,37.08
2023-05-04T03:49:36.857Z,37.41
2023-05-04T03:52:04.911Z,37.07
2023-05-04T03:54:32.854Z,37.21
2023-05-04T03:57:02.333Z,37.40
2023-05-04T03:59:30.289Z,37.14
2023-05-04T04:01:58.298Z,37.32
2023-05-04T04:04:26.348Z,37.57
2023-05-04T04:06:54.393Z,37.61
2023-05-04T04:09:22.389Z,37.26
2023-05-04T04:11:50.382Z,37.21
2023-05-04T04:14:20.891Z,37.60
2023-05-04T04:16:48.937Z,37.34
2023-05-04T04:19:16.878Z,37.37
2023-05-04T04:21:44.801Z,37.65
2023-05-04T04:24:12.829Z,37.55
2023-05-04T04:26:40.787Z,37.18
2023-05-04T04:29:08.714Z,37.60
2023-05-04T04:31:38.135Z,37.59
2023-05-04T04:34:06.092Z,37.23
2023-05-04T04:36:34.036Z,37.29
2023-05-04T04:39:01.950Z,37.28
2023-05-04T04:41:29.917Z,37.58
2023-05-04T04:43:57.841Z,37.31
2023-05-04T04:46:25.812Z,37.25
2023-05-04T04:48:55.599Z,37.30
2023-05-04T04:51:23.619Z,37.71
2023-05-04T04:53:52.302Z,37.61
2023-05-04T04:56:21.715Z,37.67
2023-05-04T04:58:50.959Z,37.39
2023-05-04T05:01:19.014Z,37.49
2023-05-04T05:03:47.096Z,37.25
2023-05-04T05:06:16.457Z,37.36
2023-05-04T05:08:44.768Z,37.35
2023-05-04T05:11:12.971Z,37.19
2023-05-04T05:13:40.940Z,37.24
2023-05-04T05:16:09.007Z,37.46
2023-05-04T05:18:37.044Z,37.41
2023-05-04T05:21:05.546Z,37.45
2023-05-04T05:23:35.737Z,37.49
2023-05-04T05:26:03.731Z,37.42
2023-05-04T05:28:32.270Z,37.21
2023-05-04T05:31:00.332Z,37.38
2023-05-04T05:33:28.373Z,37.39
2023-05-04T05:35:56.835Z,37.41
2023-05-04T05:38:24.851Z,37.30
2023-05-04T05:40:54.171Z,37.69
2023-05-04T05:43:22.199Z,37.34
2023-05-04T05:45:50.273Z,37.61
2023-05-04T05:48:18.360Z,37.26
2023-05-04T05:50:48.996Z,37.37
2023-05-04T05:53:16.997Z,37.37
2023-05-04T05:55:44.962Z,37.34
2023-05-04T05:58:14.355Z,37.69
2023-05-04T06:00:42.622Z,37.41
2023-05-04T06:03:10.756Z,37.56
2023-05-04T06:05:38.682Z,37.29
2023-05-04T06:08:06.769Z,37.63
2023-05-04T06:10:35.067Z,37.51
2023-05-04T06:13:03.342Z,37.48
2023-05-04T06:15:32.740Z,37.33
2023-05-04T06:18:00.845Z,37.65
2023-05-04T06:20:29.254Z,37.55
2023-05-04T06:22:58.105Z,37.29
2023-05-04T06:25:26.103Z,37.23
2023-05-04T06:27:54.138Z,37.29
2023-05-04T06:30:24.382Z,37.38
2023-05-04T06:32:53.705Z,37.58
2023-05-04T06:35:21.709Z,37.39
2023-05-04T06:40:22.655Z,37.40
2023-05-04T06:42:50.765Z,37.55
2023-05-04T06:45:19.305Z,37.57
2023-05-04T06:47:47.379Z,37.28
2023-05-04T06:50:16.868Z,37.30
2023-05-04T06:52:45.158Z,37.30
2023-05-04T06:55:13.754Z,37.18
2023-05-04T06:57:41.802Z,37.42
2023-05-04T07:00:11.054Z,37.49
2023-05-04T07:02:39.199Z,37.21
2023-05-04T07:05:07.779Z,37.50
2023-05-04T07:07:37.575Z,37.42
2023-05-04T07:10:06.356Z,37.26
2023-05-04T07:12:34.450Z,37.39
2023-05-04T07:15:02.454Z,37.24
2023-05-04T07:17:33.209Z,37.40
2023-05-04T07:20:02.559Z,37.30
2023-05-04T07:22:31.282Z,37.30
2023-05-04T07:25:00.717Z,37.08
2023-05-04T07:27:28.652Z,36.87
2023-05-04T07:29:56.672Z,37.05
2023-05-04T07:32:24.700Z,37.32
2023-05-04T07:34:52.736Z,36.93
2023-05-04T07:37:20.727Z,36.80
2023-05-04T07:39:48.681Z,37.00
2023-05-04T07:42:17.993Z,36.95
2023-05-04T07:44:46.163Z,37.07
2023-05-04T07:47:14.090Z,36.94
2023-05-04T07:49:42.116Z,36.90
2023-05-04T07:52:10.116Z,36.95
2023-05-04T07:54:38.388Z,36.97
2023-05-04T07:57:06.571Z,36.69
2023-05-04T07:59:35.832Z,36.88
2023-05-04T08:02:04.380Z,37.23
2023-05-04T08:04:32.468Z,36.87
2023-05-04T08:07:00.449Z,36.78
2023-05-04T08:09:28.393Z,36.72
2023-05-04T08:11:56.365Z,36.85
2023-05-04T08:14:24.345Z,36.92
2023-05-04T08:16:53.719Z,36.95
2023-05-04T08:19:21.767Z,36.71
2023-05-04T08:21:49.791Z,36.58
2023-05-04T08:24:18.605Z,36.43
2023-05-04T08:26:55.697Z,36.95
2023-05-04T08:29:32.059Z,36.84
2023-05-04T08:32:01.529Z,36.83
2023-05-04T08:34:29.648Z,36.58
2023-05-04T08:36:58.067Z,36.80
2023-05-04T08:39:26.180Z,36.69
2023-05-04T08:41:54.165Z,36.43
2023-05-04T08:44:22.860Z,36.44
2023-05-04T08:46:53.606Z,36.63
2023-05-04T08:49:23.353Z,36.17
2023-05-04T08:51:51.377Z,36.32
2023-05-04T08:54:20.049Z,36.29
2023-05-04T08:56:48.127Z,36.09
2023-05-04T08:59:19.920Z,36.27
2023-05-04T09:01:48.466Z,36.36
2023-05-04T09:04:16.426Z,36.05
2023-05-04T09:06:47.491Z,36.01
2023-05-04T09:09:15.500Z,36.24
2023-05-04T09:11:43.506Z,36.20
2023-05-04T09:14:11.536Z,36.29
2023-05-04T09:16:39.524Z,35.94
2023-05-04T09:19:18.603Z,35.89
2023-05-04T09:21:49.266Z,36.10
2023-05-04T09:24:26.883Z,36.00
2023-05-04T09:26:54.844Z,36.15
2023-05-04T09:29:25.755Z,35.96
2023-05-04T09:31:53.774Z,35.79
2023-05-04T09:34:22.337Z,36.07
2023-05-04T09:37:00.739Z,35.95
2023-05-04T09:39:28.916Z,35.77
2023-05-04T09:41:56.944Z,36.06
2023-05-04T09:44:27.607Z,36.01
2023-05-04T09:46:57.879Z,35.69
2023-05-04T09:49:33.077Z,35.66
2023-05-04T09:52:03.100Z,35.90
2023-05-04T09:54:32.533Z,35.95
2023-05-04T09:57:04.527Z,35.69
2023-05-04T09:59:32.726Z,35.81
2023-05-04T10:02:39.506Z,35.84
2023-05-04T10:05:09.336Z,36.07
2023-05-04T10:07:41.395Z,36.07
2023-05-04T10:10:10.016Z,35.92
2023-05-04T10:12:38.089Z,35.94
2023-05-04T10:15:08.661Z,35.76
2023-05-04T10:17:52.070Z,36.11
2023-05-04T10:20:43.990Z,35.69
2023-05-04T10:23:23.716Z,35.98
2023-05-04T10:26:20.359Z,35.82
2023-05-04T10:28:54.533Z,36.05
2023-05-04T10:31:22.564Z,35.75
2023-05-04T10:33:50.680Z,36.03
2023-05-04T10:36:24.414Z,35.79
2023-05-04T10:38:53.764Z,35.91
2023-05-04T10:41:22.421Z,36.27
2023-05-04T10:43:53.502Z,36.02
2023-05-04T10:46:21.666Z,36.39
2023-05-04T10:48:49.758Z,36.20
2023-05-04T10:51:21.075Z,36.32
2023-05-04T10:53:49.115Z,36.27
2023-05-04T10:56:25.471Z,36.28
2023-05-04T10:58:53.617Z,36.38
2023-05-04T11:01:22.102Z,36.02
2023-05-04T11:03:51.396Z,36.33
2023-05-04T11:06:23.475Z,36.37
2023-05-04T11:09:00.051Z,36.47
2023-05-04T11:11:29.419Z,36.37
2023-05-04T11:13:57.466Z,36.39
2023-05-04T11:16:25.657Z,36.45
2023-05-04T11:18:54.562Z,36.31
2023-05-04T11:21:25.842Z,36.06
2023-05-04T11:23:57.216Z,36.61
2023-05-04T11:26:25.139Z,36.43
2023-05-04T11:28:54.516Z,36.33
2023-05-04T11:31:22.576Z,36.35
2023-05-04T11:33:51.393Z,36.40
2023-05-04T11:36:19.588Z,36.18
2023-05-04T11:38:47.812Z,36.29
2023-05-04T11:41:15.749Z,36.51
2023-05-04T11:43:44.215Z,36.22
2023-05-04T11:46:13.669Z,36.21
2023-05-04T11:48:42.025Z,36.38
2023-05-04T11:51:10.272Z,36.33
2023-05-04T11:53:38.586Z,36.17
2023-05-04T11:56:08.376Z,36.15
2023-05-04T11:58:36.541Z,36.39
2023-05-04T12:01:04.861Z,36.46
2023-05-04T12:06:06.341Z,36.16
2023-05-04T12:08:35.117Z,36.22
2023-05-04T12:11:13.281Z,36.33
2023-05-04T12:13:42.485Z,36.21
2023-05-04T12:16:13.841Z,36.45
2023-05-04T12:18:44.383Z,36.19
2023-05-04T12:21:13.086Z,36.18
2023-05-04T12:23:41.083Z,36.49
2023-05-04T12:26:09.176Z,36.50
2023-05-04T12:28:37.195Z,36.36
2023-05-04T12:31:25.618Z,36.22
2023-05-04T12:33:55.301Z,36.34
2023-05-04T12:36:26.019Z,36.40
2023-05-04T12:38:53.952Z,36.20
2023-05-04T12:41:21.890Z,36.43
2023-05-04T12:43:49.869Z,36.60
2023-05-04T12:46:21.526Z,36.56
2023-05-04T12:48:49.493Z,36.45
2023-05-04T12:51:18.735Z,36.32
2023-05-04T12:53:46.660Z,36.53
2023-05-04T12:56:14.682Z,36.54
2023-05-04T12:58:42.768Z,36.60
2023-05-04T13:05:13.078Z,36.60
2023-05-04T13:07:42.530Z,36.34
2023-05-04T13:10:11.285Z,36.60
2023-05-04T13:12:39.673Z,36.48
2023-05-04T13:15:08.773Z,36.35
2023-05-04T13:17:37.918Z,36.54
2023-05-04T13:20:07.219Z,36.38
2023-05-04T13:22:35.407Z,36.71
2023-05-04T13:25:05.548Z,36.33
2023-05-04T13:27:33.897Z,36.59
2023-05-04T13:30:03.546Z,36.41
2023-05-04T13:32:32.125Z,36.64
2023-05-04T13:35:00.198Z,36.83
2023-05-04T13:37:28.197Z,36.45
2023-05-04T13:39:56.418Z,36.85
2023-05-04T13:42:25.824Z,36.55
2023-05-04T13:44:53.855Z,36.44
2023-05-04T13:47:23.623Z,36.70
2023-05-04T13:49:51.683Z,36.58
2023-05-04T13:52:19.731Z,36.56
2023-05-04T13:54:47.991Z,36.53
2023-05-04T13:57:16.062Z,36.61
2023-05-04T13:59:54.876Z,36.61
2023-05-04T14:02:33.861Z,36.79
2023-05-04T14:05:02.752Z,36.50
2023-05-04T14:07:30.901Z,36.78
2023-05-04T14:09:59.909Z,36.63
2023-05-04T14:12:28.853Z,36.84
2023-05-04T14:14:59.079Z,36.91
2023-05-04T14:17:40.596Z,36.91
2023-05-04T14:20:09.777Z,36.85
2023-05-04T14:22:41.144Z,36.83
2023-05-04T14:25:10.179Z,36.41
2023-05-04T14:27:38.179Z,36.72
2023-05-04T14:30:09.739Z,36.61
2023-05-04T14:32:38.091Z,36.46
2023-05-04T14:35:08.932Z,36.56
2023-05-04T14:37:37.810Z,36.63
2023-05-04T14:40:06.811Z,36.72
2023-05-04T14:42:35.104Z,36.42
2023-05-04T14:45:03.415Z,36.68
2023-05-04T14:47:33.569Z,36.66
2023-05-04T14:50:02.403Z,36.64
2023-05-04T14:52:30.843Z,36.68
2023-05-04T14:54:58.743Z,36.68
2023-05-04T14:57:26.686Z,36.65
2023-05-04T14:59:55.012Z,36.26
2023-05-04T15:02:23.082Z,36.48
2023-05-04T15:04:52.560Z,36.56
2023-05-04T15:07:21.013Z,36.36
2023-05-04T15:09:49.173Z,36.39
2023-05-04T15:12:17.713Z,36.46
2023-05-04T15:14:45.693Z,36.18
2023-05-04T15:21:06.380Z,36.63
2023-05-04T15:23:34.298Z,36.52
2023-05-04T15:26:02.226Z,36.46
2023-05-04T15:28:30.284Z,36.52
2023-05-04T15:30:58.227Z,36.18
2023-05-04T15:33:26.779Z,36.11
2023-05-04T15:35:54.649Z,36.07
2023-05-04T15:38:24.073Z,36.33
2023-05-04T15:40:52.096Z,36.36
2023-05-04T15:43:20.123Z,36.42
2023-05-04T15:45:48.083Z,36.31
2023-05-04T15:48:16.582Z,36.38
2023-05-04T15:50:44.495Z,36.23
2023-05-04T15:53:12.480Z,36.31
2023-05-04T15:55:42.381Z,36.49
2023-05-04T15:58:10.637Z,36.32
2023-05-04T16:00:38.776Z,36.32
2023-05-04T16:03:06.792Z,36.33
2023-05-04T16:05:34.856Z,36.08
2023-05-04T16:08:02.937Z,36.45
2023-05-04T16:10:30.927Z,36.23
2023-05-04T16:13:04.169Z,36.59
2023-05-04T16:15:32.519Z,36.16
2023-05-04T16:18:00.518Z,36.47
2023-05-04T16:20:29.571Z,36.37
2023-05-04T16:22:57.646Z,36.52
2023-05-04T16:25:25.665Z,36.26
2023-05-04T16:27:53.670Z,36.70
2023-05-04T16:30:26.197Z,36.48
2023-05-04T16:32:54.610Z,36.41
2023-05-04T16:35:22.790Z,36.60
2023-05-04T16:37:50.831Z,36.73
2023-05-04T16:40:19.123Z,36.40
2023-05-04T16:42:47.287Z,36.38
2023-05-04T16:45:15.723Z,36.74
2023-05-04T16:48:03.719Z,36.44
2023-05-04T16:50:31.909Z,36.53
2023-05-04T16:53:00.412Z,36.87
2023-05-04T16:55:28.494Z,36.67
2023-05-04T16:57:57.390Z,36.89
2023-05-04T17:00:25.492Z,36.75
2023-05-04T17:02:54.210Z,36.77
2023-05-04T17:05:23.625Z,36.70
2023-05-04T17:07:51.813Z,36.52
2023-05-04T17:10:19.836Z,36.83
2023-05-04T17:12:47.792Z,36.90
2023-05-04T17:15:15.757Z,36.72
2023-05-04T17:17:43.697Z,36.88
2023-05-04T17:20:15.001Z,36.65
2023-05-04T17:22:44.573Z,36.95
2023-05-04T17:25:12.746Z,36.73
2023-05-04T17:27:41.263Z,36.99
2023-05-04T17:30:10.596Z,36.73
2023-05-04T17:32:39.037Z,36.98
2023-05-04T17:35:20.196Z,36.97
2023-05-04T17:37:57.641Z,36.86
2023-05-04T17:40:27.338Z,37.07
2023-05-04T17:42:55.559Z,37.10
2023-05-04T17:45:23.591Z,36.76
2023-05-04T17:47:52.032Z,37.04
2023-05-04T17:50:20.293Z,37.00
2023-05-04T17:52:53.903Z,37.19
2023-05-04T17:55:23.734Z,36.80
2023-05-04T17:57:51.956Z,36.76
2023-05-04T18:00:20.419Z,37.12
2023-05-04T18:02:48.523Z,37.15
2023-05-04T18:05:16.690Z,36.77
2023-05-04T18:07:44.571Z,36.86
2023-05-04T18:10:14.153Z,36.93
2023-05-04T18:12:42.359Z,37.25
2023-05-04T18:15:11.182Z,37.19
2023-05-04T18:17:41.924Z,37.21
2023-05-04T18:20:10.976Z,37.33
2023-05-04T18:22:38.999Z,37.34
2023-05-04T18:25:07.998Z,37.35
2023-05-04T18:27:37.291Z,37.08
2023-05-04T18:30:06.299Z,37.15
2023-05-04T18:32:34.510Z,37.29
2023-05-04T18:35:02.787Z,37.46
2023-05-04T18:37:30.816Z,37.00
2023-05-04T18:39:58.858Z,37.36
2023-05-04T18:42:26.887Z,37.06
2023-05-04T18:44:56.304Z,37.25
2023-05-04T18:47:24.223Z,37.29
2023-05-04T18:49:52.261Z,37.39
2023-05-04T18:52:20.233Z,37.61
2023-05-04T18:54:48.230Z,37.08
2023-05-04T18:57:16.181Z,37.23
2023-05-04T18:59:44.194Z,37.07
2023-05-04T19:02:13.776Z,37.52
2023-05-04T19:04:41.807Z,37.38
2023-05-04T19:07:09.999Z,37.56
2023-05-04T19:09:38.121Z,37.48
2023-05-04T19:12:06.511Z,37.66
2023-05-04T19:14:34.554Z,37.29
2023-05-04T19:17:41.109Z,37.45
2023-05-04T19:20:11.327Z,37.57
2023-05-04T19:22:39.211Z,37.39
2023-05-04T19:25:07.951Z,37.26
2023-05-04T19:27:35.943Z,37.73
2023-05-04T19:30:03.999Z,37.94
2023-05-04T19:32:32.857Z,38.01
2023-05-04T19:35:00.916Z,37.69
2023-05-04T19:37:30.674Z,37.62
2023-05-04T19:39:58.921Z,37.74
2023-05-04T19:42:26.903Z,37.77
2023-05-04T19:44:55.082Z,37.64
2023-05-04T19:47:23.330Z,37.66
2023-05-04T19:49:51.961Z,37.76
2023-05-04T19:52:19.971Z,37.82
2023-05-04T19:54:53.621Z,37.64
2023-05-04T19:57:21.850Z,37.97
2023-05-04T19:59:49.747Z,37.84
2023-05-04T20:02:17.813Z,37.91
2023-05-04T20:04:45.839Z,38.20
2023-05-04T20:07:13.832Z,38.14
2023-05-04T20:09:41.752Z,37.68
2023-05-04T20:12:11.349Z,37.69
2023-05-04T20:14:40.536Z,37.98
2023-05-04T20:17:08.592Z,38.15
2023-05-04T20:19:37.614Z,38.03
2023-05-04T20:22:05.579Z,38.10
2023-05-04T20:24:33.478Z,37.89
2023-05-04T20:27:04.549Z,37.74
2023-05-04T20:29:34.012Z,38.12
2023-05-04T20:32:05.224Z,37.89
2023-05-04T20:34:33.308Z,37.95
2023-05-04T20:37:01.338Z,38.25
2023-05-04T20:39:29.350Z,38.02
2023-05-04T20:41:58.026Z,37.89
2023-05-04T20:44:28.238Z,38.40
2023-05-04T20:46:57.597Z,38.35
2023-05-04T20:49:25.863Z,38.13
2023-05-04T20:51:53.908Z,38.42
2023-05-04T20:54:22.462Z,38.25
2023-05-04T20:56:50.517Z,38.31
2023-05-04T20:59:21.071Z,38.00
2023-05-04T21:01:49.104Z,38.19
2023-05-04T21:04:21.033Z,38.40
2023-05-04T21:06:49.034Z,38.16
2023-05-04T21:09:17.148Z,38.52
2023-05-04T21:11:45.186Z,38.17
2023-05-04T21:14:13.191Z,38.20
2023-05-04T21:16:41.219Z,38.22
2023-05-04T21:19:09.311Z,38.32
2023-05-04T21:21:40.983Z,38.39
2023-05-04T21:24:12.259Z,38.36
2023-05-04T21:26:40.327Z,38.34
2023-05-04T21:29:11.803Z,38.44
2023-05-04T21:31:41.258Z,38.45
2023-05-04T21:34:09.320Z,38.50
2023-05-04T21:36:39.124Z,38.48
2023-05-04T21:39:07.027Z,38.53
2023-05-04T21:41:35.189Z,38.25
2023-05-04T21:44:03.236Z,38.14
2023-05-04T21:46:31.248Z,38.13
2023-05-04T21:48:59.207Z,38.08
2023-05-04T21:51:28.432Z,38.51
2023-05-04T21:53:57.747Z,38.20
2023-05-04T21:56:25.824Z,38.00
2023-05-04T21:58:53.802Z,38.38
2023-05-04T22:01:47.348Z,38.15
2023-05-04T22:04:15.964Z,38.11
2023-05-04T22:06:44.713Z,37.94
2023-05-04T22:09:14.037Z,38.09
2023-05-04T22:11:42.037Z,38.23
2023-05-04T22:14:10.085Z,38.16
2023-05-04T22:16:38.036Z,38.04
2023-05-04T22:19:05.990Z,38.12
2023-05-04T22:21:33.992Z,38.16
2023-05-04T22:24:01.949Z,37.89
2023-05-04T22:26:31.263Z,37.90
2023-05-04T22:28:59.760Z,37.91
2023-05-04T22:31:27.856Z,37.91
2023-05-04T22:33:55.887Z,38.03
2023-05-04T22:36:23.804Z,37.91
2023-05-04T22:38:52.020Z,38.03
2023-05-04T22:41:19.927Z,38.51
2023-05-04T22:43:49.201Z,38.40
2023-05-04T22:46:17.648Z,38.47
2023-05-04T22:48:46.669Z,38.37
2023-05-04T22:51:14.776Z,38.14
2023-05-04T22:53:42.746Z,38.42
2023-05-04T22:56:12.235Z,38.51
2023-05-04T22:58:40.925Z,38.35
2023-05-04T23:01:11.810Z,38.37
2023-05-04T23:03:40.164Z,38.45
2023-05-04T23:06:08.782Z,38.62
2023-05-04T23:08:39.986Z,38.48
2023-05-04T23:11:08.497Z,38.20
2023-05-04T23:13:36.465Z,38.20
2023-05-04T23:16:04.934Z,38.18
2023-05-04T23:18:35.175Z,38.37
2023-05-04T23:21:03.239Z,38.21
2023-05-04T23:23:31.231Z,38.36
2023-05-04T23:25:59.129Z,37.95
2023-05-04T23:28:27.129Z,38.04
2023-05-04T23:30:55.821Z,38.20
2023-05-04T23:33:23.924Z,38.05
2023-05-04T23:35:56.832Z,38.05
2023-05-04T23:38:25.096Z,38.15
2023-05-04T23:40:53.898Z,38.08
2023-05-04T23:43:23.002Z,38.01
2023-05-04T23:45:51.669Z,38.33
2023-05-04T23:48:19.818Z,38.50
2023-05-04T23:50:53.974Z,38.32
2023-05-04T23:53:23.406Z,38.23
2023-05-04T23:56:03.544Z,38.40
2023-05-04T23:58:32.227Z,38.13
